Time;durP1;ratioP1;P1;durP2;ratioP2;P2;SDS_P1;SDS_P2;PMS_P1;PMS_P2;Temp;Humidity;BMP_temperature;BMP_pressure;BME280_temperature;BME280_humidity;BME280_pressure;Samples;Min_cycle;Max_cycle;Signal;HPM_P1;HPM_P2
2023/05/31 00:02:13;;;;;;;10.13;4.78;;;12.80;99.90;;;;;;4956217;29;20062;-73
2023/05/31 00:04:38;;;;;;;8.88;4.28;;;12.80;99.90;;;;;;4950828;29;20123;-73
2023/05/31 00:07:05;;;;;;;7.70;4.05;;;12.80;99.90;;;;;;4948017;29;20094;-73
2023/05/31 00:09:31;;;;;;;8.85;4.72;;;12.80;99.90;;;;;;4956562;29;20023;-72
2023/05/31 00:11:57;;;;;;;7.97;4.50;;;12.80;99.90;;;;;;4957438;28;20700;-73
2023/05/31 00:14:23;;;;;;;7.75;4.47;;;12.70;99.90;;;;;;4957651;28;20063;-72
2023/05/31 00:16:48;;;;;;;7.32;4.13;;;12.70;99.90;;;;;;4957530;28;20359;-73
2023/05/31 00:19:14;;;;;;;7.25;4.60;;;12.70;99.90;;;;;;4955331;28;20062;-73
2023/05/31 00:21:40;;;;;;;10.70;4.80;;;12.70;99.90;;;;;;4953798;28;20058;-74
2023/05/31 00:24:06;;;;;;;6.18;4.20;;;12.70;99.90;;;;;;4957206;29;20442;-73
2023/05/31 00:26:31;;;;;;;6.50;4.32;;;12.70;99.90;;;;;;4950029;28;20130;-73
2023/05/31 00:28:57;;;;;;;8.00;4.80;;;12.70;99.90;;;;;;4954488;29;20111;-73
2023/05/31 00:31:23;;;;;;;9.88;5.00;;;12.70;99.90;;;;;;4956883;28;20031;-73
2023/05/31 00:33:48;;;;;;;9.85;5.15;;;12.70;99.90;;;;;;4948648;29;20446;-73
2023/05/31 00:36:14;;;;;;;9.20;4.90;;;12.70;99.90;;;;;;4955679;28;20066;-74
2023/05/31 00:38:40;;;;;;;9.57;4.65;;;12.60;99.90;;;;;;4948601;29;20030;-73
2023/05/31 00:41:08;;;;;;;11.25;5.13;;;12.60;99.90;;;;;;4951560;29;20050;-71
2023/05/31 00:43:33;;;;;;;9.15;5.38;;;12.60;99.90;;;;;;4944652;29;20039;-72
2023/05/31 00:45:59;;;;;;;8.63;5.43;;;12.60;99.90;;;;;;4955339;29;20482;-73
2023/05/31 00:48:25;;;;;;;10.60;5.65;;;12.60;99.90;;;;;;4955360;29;20050;-73
2023/05/31 00:50:50;;;;;;;10.00;5.68;;;12.60;99.90;;;;;;4954430;29;20487;-73
2023/05/31 00:53:17;;;;;;;12.05;5.40;;;12.60;99.90;;;;;;4948194;29;20387;-72
2023/05/31 00:55:43;;;;;;;11.73;5.80;;;12.50;99.90;;;;;;4955273;28;20043;-73
2023/05/31 00:58:10;;;;;;;11.52;5.53;;;12.50;99.90;;;;;;4955520;29;20035;-73
2023/05/31 01:00:36;;;;;;;9.68;5.55;;;12.50;99.90;;;;;;4954672;28;20027;-73
2023/05/31 01:03:02;;;;;;;8.75;5.50;;;12.50;99.90;;;;;;4944032;29;20031;-73
2023/05/31 01:05:29;;;;;;;9.50;6.05;;;12.50;99.90;;;;;;4953726;29;20027;-73
2023/05/31 01:07:54;;;;;;;12.18;6.07;;;12.50;99.90;;;;;;4946063;29;20505;-73
2023/05/31 01:10:20;;;;;;;13.88;5.85;;;12.50;99.90;;;;;;4943315;29;20023;-73
2023/05/31 01:13:00;;;;;;;11.52;5.97;;;12.40;99.90;;;;;;4949506;29;20459;-73
2023/05/31 01:15:31;;;;;;;11.13;5.68;;;12.40;99.90;;;;;;4956253;29;20167;-74
2023/05/31 01:18:10;;;;;;;9.80;5.70;;;12.40;99.90;;;;;;4950811;29;20477;-73
2023/05/31 01:20:39;;;;;;;10.07;5.82;;;12.40;99.90;;;;;;4944431;29;20059;-73
2023/05/31 01:23:32;;;;;;;11.15;5.95;;;12.30;99.90;;;;;;4955150;28;20019;-73
2023/05/31 01:26:17;;;;;;;10.90;5.75;;;12.30;99.90;;;;;;4954698;29;20102;-73
2023/05/31 01:28:44;;;;;;;9.88;5.47;;;12.30;99.90;;;;;;4955099;28;20058;-73
2023/05/31 01:31:16;;;;;;;12.38;5.88;;;12.20;99.90;;;;;;4950496;29;20553;-73
2023/05/31 01:33:42;;;;;;;13.20;6.05;;;12.30;99.90;;;;;;4952078;28;20047;-73
2023/05/31 01:36:08;;;;;;;11.90;6.10;;;12.20;99.90;;;;;;4945606;29;20645;-73
2023/05/31 01:38:33;;;;;;;11.48;5.82;;;12.20;99.90;;;;;;4943800;28;20040;-73
2023/05/31 01:41:01;;;;;;;10.65;5.85;;;12.30;99.90;;;;;;4942933;29;20034;-73
2023/05/31 01:43:27;;;;;;;11.90;6.05;;;12.20;99.90;;;;;;4942306;29;20023;-73
2023/05/31 01:45:56;;;;;;;11.18;5.80;;;12.20;99.90;;;;;;4949741;28;20030;-73
2023/05/31 01:48:22;;;;;;;10.02;5.75;;;12.20;99.90;;;;;;4949880;28;20047;-73
2023/05/31 01:50:49;;;;;;;10.48;5.68;;;12.20;99.90;;;;;;4955348;28;20379;-72
2023/05/31 01:53:15;;;;;;;9.57;5.82;;;12.20;99.90;;;;;;4954743;28;20659;-72
2023/05/31 01:55:43;;;;;;;9.18;5.70;;;12.20;99.90;;;;;;4947050;29;20037;-72
2023/05/31 01:58:10;;;;;;;9.63;5.95;;;12.20;99.90;;;;;;4947108;29;20035;-72
2023/05/31 02:00:37;;;;;;;10.90;5.88;;;12.20;99.90;;;;;;4954288;28;20027;-74
2023/05/31 02:03:04;;;;;;;12.50;6.47;;;12.20;99.90;;;;;;4951042;29;20027;-72
2023/05/31 02:05:30;;;;;;;12.02;6.15;;;12.20;99.90;;;;;;4944213;28;20135;-72
2023/05/31 02:07:56;;;;;;;15.35;6.30;;;12.20;99.90;;;;;;4945755;29;20031;-72
2023/05/31 02:10:22;;;;;;;15.73;6.68;;;12.10;99.90;;;;;;4940880;29;20050;-73
2023/05/31 02:12:53;;;;;;;11.75;5.55;;;12.10;99.90;;;;;;4954940;29;20036;-73
2023/05/31 02:15:19;;;;;;;12.05;6.03;;;12.10;99.90;;;;;;4953538;29;20038;-73
2023/05/31 02:17:46;;;;;;;12.18;6.10;;;12.10;99.90;;;;;;4941745;29;20027;-73
2023/05/31 02:20:15;;;;;;;12.20;6.07;;;12.10;99.90;;;;;;4955019;28;20111;-73
2023/05/31 02:22:45;;;;;;;12.70;6.00;;;12.10;99.90;;;;;;4955088;28;20019;-73
2023/05/31 02:25:15;;;;;;;9.48;5.30;;;12.10;99.90;;;;;;4954829;28;20023;-73
2023/05/31 02:27:41;;;;;;;11.05;5.95;;;12.00;99.90;;;;;;4951502;29;20102;-73
2023/05/31 02:30:08;;;;;;;9.77;5.82;;;12.00;99.90;;;;;;4949363;28;20024;-73
2023/05/31 02:32:37;;;;;;;14.15;5.65;;;12.00;99.90;;;;;;4954130;29;20027;-73
2023/05/31 02:35:08;;;;;;;9.93;5.30;;;12.00;99.90;;;;;;4953081;28;20038;-73
2023/05/31 02:37:35;;;;;;;12.35;6.07;;;12.00;99.90;;;;;;4952615;29;20019;-72
2023/05/31 02:40:07;;;;;;;12.65;6.22;;;12.00;99.90;;;;;;4950716;28;20043;-73
2023/05/31 02:42:34;;;;;;;11.85;5.93;;;12.00;99.90;;;;;;4951775;28;20066;-73
2023/05/31 02:45:00;;;;;;;10.48;5.80;;;12.00;99.90;;;;;;4947755;28;20152;-73
2023/05/31 02:47:25;;;;;;;13.52;6.22;;;11.90;99.90;;;;;;4951924;28;20031;-73
2023/05/31 02:49:51;;;;;;;13.00;5.82;;;11.90;99.90;;;;;;4954273;28;20031;-73
2023/05/31 02:52:16;;;;;;;14.70;5.70;;;11.90;99.90;;;;;;4952447;29;20541;-73
2023/05/31 02:54:42;;;;;;;12.88;6.47;;;11.90;99.90;;;;;;4954270;28;20418;-73
2023/05/31 02:57:08;;;;;;;9.55;5.45;;;11.90;99.90;;;;;;4947522;29;20043;-73
2023/05/31 02:59:33;;;;;;;12.05;5.70;;;11.90;99.90;;;;;;4945927;29;20027;-73
2023/05/31 03:01:59;;;;;;;10.18;5.93;;;11.90;99.90;;;;;;4954530;29;20031;-72
2023/05/31 03:04:25;;;;;;;12.07;5.35;;;11.90;99.90;;;;;;4941663;28;20031;-73
2023/05/31 03:06:51;;;;;;;11.23;5.85;;;11.90;99.90;;;;;;4949254;29;20135;-73
2023/05/31 03:09:17;;;;;;;9.85;5.82;;;11.80;99.90;;;;;;4952871;29;20059;-73
2023/05/31 03:11:45;;;;;;;11.30;5.60;;;11.80;99.90;;;;;;4949765;28;20062;-73
2023/05/31 03:14:11;;;;;;;11.68;6.15;;;11.80;99.90;;;;;;4953692;28;20042;-73
2023/05/31 03:16:37;;;;;;;10.85;6.35;;;11.80;99.90;;;;;;4952024;28;20031;-73
2023/05/31 03:19:03;;;;;;;9.73;5.82;;;11.80;99.90;;;;;;4946196;29;20036;-72
2023/05/31 03:21:29;;;;;;;13.75;6.22;;;11.70;99.90;;;;;;4939881;29;20082;-73
2023/05/31 03:23:54;;;;;;;15.43;6.30;;;11.70;99.90;;;;;;4949748;29;20039;-72
2023/05/31 03:26:20;;;;;;;13.30;6.47;;;11.70;99.90;;;;;;4943007;29;20023;-72
2023/05/31 03:28:46;;;;;;;12.50;6.60;;;11.70;99.90;;;;;;4954076;29;20019;-72
2023/05/31 03:31:11;;;;;;;10.63;6.07;;;11.70;99.90;;;;;;4953255;29;20028;-72
2023/05/31 03:33:37;;;;;;;13.25;6.30;;;11.70;99.90;;;;;;4952922;28;20379;-72
2023/05/31 03:36:03;;;;;;;12.15;6.47;;;11.60;99.90;;;;;;4952537;29;20028;-72
2023/05/31 03:38:29;;;;;;;12.98;6.22;;;11.70;99.90;;;;;;4958366;28;20031;-72
2023/05/31 03:40:55;;;;;;;12.45;6.13;;;11.60;99.90;;;;;;4957761;28;20379;-72
2023/05/31 03:43:21;;;;;;;16.52;6.63;;;11.60;99.90;;;;;;4955330;29;20055;-72
2023/05/31 03:45:47;;;;;;;14.60;6.47;;;11.60;99.90;;;;;;4954592;29;20019;-73
2023/05/31 03:48:12;;;;;;;11.30;6.00;;;11.60;99.90;;;;;;4958351;29;20028;-73
2023/05/31 03:50:40;;;;;;;12.98;6.47;;;11.60;99.90;;;;;;4958211;29;20027;-73
2023/05/31 03:53:06;;;;;;;11.77;5.90;;;11.60;99.90;;;;;;4958305;29;20590;-73
2023/05/31 03:55:32;;;;;;;13.30;6.35;;;11.60;99.90;;;;;;4953241;29;20031;-72
2023/05/31 03:57:58;;;;;;;10.85;6.18;;;11.60;99.90;;;;;;4951576;29;20020;-72
2023/05/31 04:00:25;;;;;;;12.88;6.75;;;11.60;99.90;;;;;;4948992;29;20035;-72
2023/05/31 04:02:51;;;;;;;13.43;5.85;;;11.50;99.90;;;;;;4944046;28;20427;-73
2023/05/31 04:05:17;;;;;;;12.23;5.88;;;11.50;99.90;;;;;;4944519;29;20035;-72
2023/05/31 04:07:42;;;;;;;12.38;7.10;;;11.50;99.90;;;;;;4953298;29;20435;-73
2023/05/31 04:10:08;;;;;;;15.52;6.43;;;11.50;99.90;;;;;;4950632;28;20118;-73
2023/05/31 04:12:34;;;;;;;14.25;6.80;;;11.50;99.90;;;;;;4941318;29;20042;-73
2023/05/31 04:15:00;;;;;;;13.68;6.78;;;11.50;99.90;;;;;;4950058;29;20024;-73
2023/05/31 04:17:26;;;;;;;14.90;7.50;;;11.50;99.90;;;;;;4956934;29;20036;-72
2023/05/31 04:19:52;;;;;;;11.95;6.50;;;11.50;99.90;;;;;;4957214;28;20038;-72
2023/05/31 04:22:17;;;;;;;15.43;6.90;;;11.50;99.90;;;;;;4957697;29;20027;-72
2023/05/31 04:24:43;;;;;;;14.15;7.22;;;11.50;99.90;;;;;;4948474;28;20059;-72
2023/05/31 04:27:09;;;;;;;14.05;7.90;;;11.50;99.90;;;;;;4948907;29;20039;-73
2023/05/31 04:29:34;;;;;;;16.05;7.13;;;11.50;99.90;;;;;;4953732;29;20028;-73
2023/05/31 04:32:00;;;;;;;15.05;7.07;;;11.50;99.90;;;;;;4950074;29;20023;-73
2023/05/31 04:34:26;;;;;;;16.15;7.32;;;11.60;99.90;;;;;;4956808;28;20082;-73
2023/05/31 04:36:52;;;;;;;16.85;7.78;;;11.60;99.90;;;;;;4957123;28;20035;-73
2023/05/31 04:39:20;;;;;;;14.05;7.57;;;11.60;99.90;;;;;;4944075;28;20085;-74
2023/05/31 04:41:45;;;;;;;18.45;7.25;;;11.60;99.90;;;;;;4946668;28;20031;-72
2023/05/31 04:44:11;;;;;;;15.65;7.50;;;11.70;99.90;;;;;;4956922;29;20035;-73
2023/05/31 04:46:37;;;;;;;16.63;7.85;;;11.70;99.90;;;;;;4948503;28;20033;-73
2023/05/31 04:49:03;;;;;;;16.20;8.05;;;11.70;99.90;;;;;;4957107;28;20038;-72
2023/05/31 04:51:28;;;;;;;16.80;7.88;;;11.80;99.90;;;;;;4948151;28;20039;-72
2023/05/31 04:53:56;;;;;;;15.48;7.63;;;11.80;99.90;;;;;;4951413;29;20035;-73
2023/05/31 04:56:22;;;;;;;15.27;8.02;;;11.90;99.90;;;;;;4943962;29;20035;-73
2023/05/31 04:58:47;;;;;;;13.85;8.00;;;11.90;99.90;;;;;;4956982;29;20147;-72
2023/05/31 05:01:14;;;;;;;17.77;9.00;;;11.90;99.90;;;;;;4942642;28;20490;-72
2023/05/31 05:03:41;;;;;;;14.85;8.32;;;11.90;99.90;;;;;;4954404;29;20556;-73
2023/05/31 05:06:15;;;;;;;19.13;9.23;;;12.00;99.90;;;;;;4953848;29;20027;-72
2023/05/31 05:08:45;;;;;;;14.82;8.65;;;12.00;99.90;;;;;;4946691;29;20031;-73
2023/05/31 05:11:12;;;;;;;14.27;8.05;;;12.10;99.90;;;;;;4946982;29;20034;-72
2023/05/31 05:13:37;;;;;;;14.00;7.78;;;12.10;99.90;;;;;;4956459;28;20027;-73
2023/05/31 05:16:03;;;;;;;14.50;8.40;;;12.20;99.90;;;;;;4956139;28;20379;-73
2023/05/31 05:18:30;;;;;;;15.15;8.20;;;12.20;99.90;;;;;;4956654;29;20016;-73
2023/05/31 05:20:56;;;;;;;18.00;8.30;;;12.20;99.90;;;;;;4940461;29;20106;-72
2023/05/31 05:23:22;;;;;;;16.35;8.60;;;12.30;99.90;;;;;;4953457;28;20037;-72
2023/05/31 05:25:48;;;;;;;15.70;8.38;;;12.30;99.90;;;;;;4956237;29;20482;-72
2023/05/31 05:28:13;;;;;;;17.23;8.00;;;12.40;99.90;;;;;;4947593;28;20079;-72
2023/05/31 05:30:39;;;;;;;17.25;9.23;;;12.40;99.90;;;;;;4944976;29;20031;-74
2023/05/31 05:33:05;;;;;;;17.27;9.32;;;12.50;99.90;;;;;;4943714;28;20111;-73
2023/05/31 05:35:31;;;;;;;21.35;10.20;;;12.50;99.90;;;;;;4942498;29;20055;-73
2023/05/31 05:37:59;;;;;;;16.63;9.60;;;12.60;99.90;;;;;;4942371;29;20111;-73
2023/05/31 05:40:25;;;;;;;19.50;9.63;;;12.60;99.90;;;;;;4956004;28;20043;-76
2023/05/31 05:42:50;;;;;;;21.83;9.40;;;12.60;99.90;;;;;;4956040;28;20027;-72
2023/05/31 05:45:16;;;;;;;20.67;10.30;;;12.70;99.90;;;;;;4955789;28;20078;-72
2023/05/31 05:47:44;;;;;;;21.90;9.98;;;12.70;99.90;;;;;;4953672;29;20023;-72
2023/05/31 05:50:11;;;;;;;17.25;9.27;;;12.80;99.90;;;;;;4954289;29;20023;-73
2023/05/31 05:52:37;;;;;;;17.45;10.38;;;12.90;99.90;;;;;;4954260;29;20051;-72
2023/05/31 05:55:03;;;;;;;22.83;10.45;;;12.90;99.90;;;;;;4954996;29;20089;-73
2023/05/31 05:57:29;;;;;;;22.08;10.93;;;13.00;99.90;;;;;;4955166;28;20514;-72
2023/05/31 05:59:56;;;;;;;20.65;10.23;;;13.00;99.90;;;;;;4947984;28;20031;-72
2023/05/31 06:02:21;;;;;;;23.35;10.57;;;13.10;99.90;;;;;;4949564;29;20468;-73
2023/05/31 06:04:47;;;;;;;23.65;11.05;;;13.10;99.90;;;;;;4946977;28;20067;-73
2023/05/31 06:07:13;;;;;;;24.27;11.30;;;13.10;99.90;;;;;;4953730;28;20540;-73
2023/05/31 06:09:38;;;;;;;20.65;11.05;;;13.20;99.90;;;;;;4954447;29;20023;-73
2023/05/31 06:12:04;;;;;;;21.38;11.52;;;13.30;99.90;;;;;;4954311;28;20032;-74
2023/05/31 06:14:30;;;;;;;25.75;11.98;;;13.30;99.90;;;;;;4955066;28;20035;-72
2023/05/31 06:16:55;;;;;;;25.80;12.70;;;13.30;99.90;;;;;;4940458;28;20032;-72
2023/05/31 06:19:21;;;;;;;22.80;12.02;;;13.40;99.90;;;;;;4955380;28;20358;-73
2023/05/31 06:21:48;;;;;;;20.80;12.27;;;13.50;99.90;;;;;;4954885;28;20083;-73
2023/05/31 06:24:14;;;;;;;23.45;11.68;;;13.60;99.90;;;;;;4950151;28;20387;-73
2023/05/31 06:26:40;;;;;;;24.17;11.65;;;13.60;99.90;;;;;;4943805;28;20028;-72
2023/05/31 06:29:05;;;;;;;23.83;12.45;;;13.70;99.90;;;;;;4951474;29;20023;-72
2023/05/31 06:31:31;;;;;;;25.48;12.10;;;13.80;99.90;;;;;;4954170;28;20019;-72
2023/05/31 06:33:56;;;;;;;22.27;11.98;;;13.80;99.90;;;;;;4954404;28;20031;-72
2023/05/31 06:36:22;;;;;;;24.90;12.32;;;14.00;99.90;;;;;;4954167;28;20023;-72
2023/05/31 06:38:48;;;;;;;24.17;12.23;;;14.00;99.90;;;;;;4954184;28;20034;-72
2023/05/31 06:41:14;;;;;;;24.05;12.20;;;14.10;99.90;;;;;;4953260;29;20037;-72
2023/05/31 06:43:39;;;;;;;25.65;12.55;;;14.20;99.90;;;;;;4952639;28;20031;-73
2023/05/31 06:46:07;;;;;;;25.42;12.75;;;14.30;99.90;;;;;;4952633;28;20042;-73
2023/05/31 06:48:33;;;;;;;26.33;12.50;;;14.40;99.90;;;;;;4953828;29;20016;-73
2023/05/31 06:50:59;;;;;;;23.27;11.80;;;14.50;99.90;;;;;;4952630;28;20112;-73
2023/05/31 06:53:25;;;;;;;22.08;11.57;;;14.60;99.90;;;;;;4950822;29;20106;-73
2023/05/31 06:55:51;;;;;;;20.48;11.25;;;14.70;99.90;;;;;;4954533;28;20075;-73
2023/05/31 06:58:17;;;;;;;27.75;12.13;;;14.80;99.90;;;;;;4954646;28;20487;-73
2023/05/31 07:00:42;;;;;;;20.55;11.18;;;14.90;99.90;;;;;;4955993;28;20514;-73
2023/05/31 07:03:08;;;;;;;22.23;11.50;;;15.00;99.90;;;;;;4956142;29;20375;-73
2023/05/31 07:05:34;;;;;;;25.80;11.13;;;15.10;99.90;;;;;;4948149;29;20089;-72
2023/05/31 07:08:00;;;;;;;20.33;10.73;;;15.20;99.90;;;;;;4954592;29;20023;-72
2023/05/31 07:10:27;;;;;;;21.00;10.80;;;15.40;99.90;;;;;;4954342;28;20022;-72
2023/05/31 07:12:53;;;;;;;21.20;10.93;;;15.50;99.90;;;;;;4953881;29;20082;-72
2023/05/31 07:15:19;;;;;;;19.48;10.65;;;15.70;99.90;;;;;;4942188;29;20027;-75
2023/05/31 07:17:45;;;;;;;17.88;10.45;;;15.80;99.90;;;;;;4947399;28;20020;-72
2023/05/31 07:20:11;;;;;;;22.77;11.18;;;15.90;99.90;;;;;;4934755;29;20371;-72
2023/05/31 07:22:37;;;;;;;17.20;9.73;;;16.00;99.90;;;;;;4953652;29;20023;-72
2023/05/31 07:25:03;;;;;;;19.10;10.13;;;16.10;99.90;;;;;;4953559;29;20466;-72
2023/05/31 07:27:30;;;;;;;16.90;9.45;;;16.20;99.90;;;;;;4953430;28;20464;-72
2023/05/31 07:29:56;;;;;;;16.90;9.63;;;16.30;99.90;;;;;;4950967;28;20106;-72
2023/05/31 07:32:22;;;;;;;18.35;9.75;;;16.40;99.90;;;;;;4953152;28;20106;-72
2023/05/31 07:34:47;;;;;;;18.67;10.20;;;16.60;99.90;;;;;;4951415;28;20031;-72
2023/05/31 07:37:13;;;;;;;17.60;9.85;;;16.80;99.90;;;;;;4941479;29;20107;-73
2023/05/31 07:39:39;;;;;;;20.08;9.70;;;16.90;99.90;;;;;;4948588;29;20039;-72
2023/05/31 07:42:05;;;;;;;16.27;9.02;;;17.00;99.90;;;;;;4952462;29;20111;-75
2023/05/31 07:44:30;;;;;;;20.27;9.93;;;17.20;99.90;;;;;;4953089;28;20066;-73
2023/05/31 07:46:56;;;;;;;18.98;9.20;;;17.40;99.90;;;;;;4949238;28;20024;-72
2023/05/31 07:49:22;;;;;;;20.10;9.15;;;17.50;99.90;;;;;;4944440;29;20087;-72
2023/05/31 07:51:47;;;;;;;18.45;8.95;;;17.60;99.90;;;;;;4952470;29;20024;-73
2023/05/31 07:54:13;;;;;;;22.55;9.20;;;17.70;99.90;;;;;;4950943;29;20036;-72
2023/05/31 07:56:40;;;;;;;17.00;8.65;;;17.80;99.90;;;;;;4949179;29;20028;-72
2023/05/31 07:59:06;;;;;;;16.63;8.75;;;17.90;99.90;;;;;;4954495;29;20042;-72
2023/05/31 08:01:33;;;;;;;13.90;8.82;;;18.10;99.90;;;;;;4951309;28;20020;-72
2023/05/31 08:04:09;;;;;;;20.45;8.75;;;18.10;99.90;;;;;;4943371;29;20099;-72
2023/05/31 08:06:36;;;;;;;16.92;8.27;;;18.20;99.90;;;;;;4954640;28;20110;-72
2023/05/31 08:09:05;;;;;;;18.90;8.98;;;18.30;99.90;;;;;;4954195;28;20019;-72
2023/05/31 08:11:30;;;;;;;19.33;8.70;;;18.50;99.90;;;;;;4954674;28;20031;-72
2023/05/31 08:13:56;;;;;;;16.75;8.40;;;18.60;99.90;;;;;;4980144;28;20027;-72
2023/05/31 08:16:21;;;;;;;19.88;9.05;;;18.70;99.90;;;;;;4947640;28;20051;-72
2023/05/31 08:18:48;;;;;;;14.88;8.60;;;18.80;99.90;;;;;;4950442;29;20028;-72
2023/05/31 08:21:14;;;;;;;19.23;8.30;;;18.90;99.90;;;;;;4955110;28;20078;-73
2023/05/31 08:23:40;;;;;;;19.70;8.77;;;19.00;99.90;;;;;;4951754;29;20039;-73
2023/05/31 08:26:06;;;;;;;18.63;9.13;;;19.20;99.90;;;;;;4957791;28;20502;-73
2023/05/31 08:28:32;;;;;;;15.32;8.60;;;19.20;99.90;;;;;;4958997;28;20430;-73
2023/05/31 08:30:57;;;;;;;19.50;8.38;;;19.30;99.90;;;;;;4956764;28;20394;-73
2023/05/31 08:33:28;;;;;;;16.50;7.43;;;19.40;99.90;;;;;;4958412;28;20023;-72
2023/05/31 08:35:59;;;;;;;14.65;7.50;;;19.50;99.90;;;;;;4955462;29;20394;-72
2023/05/31 08:38:26;;;;;;;19.95;8.10;;;19.60;99.90;;;;;;4958262;28;20058;-72
2023/05/31 08:40:52;;;;;;;14.55;8.20;;;19.70;99.90;;;;;;4957242;29;20054;-72
2023/05/31 08:43:21;;;;;;;15.15;8.93;;;19.80;99.90;;;;;;4943220;28;20024;-72
2023/05/31 08:45:50;;;;;;;16.17;7.53;;;19.90;99.90;;;;;;4954026;29;20035;-72
2023/05/31 08:48:35;;;;;;;16.95;8.00;;;20.00;99.90;;;;;;4951810;28;20023;-72
2023/05/31 08:51:01;;;;;;;21.23;8.15;;;20.10;99.90;;;;;;4951630;28;20526;-72
2023/05/31 08:53:28;;;;;;;16.65;8.55;;;20.20;99.90;;;;;;4958636;28;20476;-73
2023/05/31 08:55:55;;;;;;;22.17;8.43;;;20.20;99.90;;;;;;4953717;28;20111;-73
2023/05/31 08:58:22;;;;;;;16.52;8.05;;;20.30;99.90;;;;;;4957503;29;20626;-72
2023/05/31 09:00:48;;;;;;;14.40;7.80;;;20.30;99.90;;;;;;4956607;28;20051;-72
2023/05/31 09:03:14;;;;;;;17.45;7.40;;;20.30;99.90;;;;;;4957408;28;20047;-73
2023/05/31 09:05:40;;;;;;;11.40;6.93;;;20.40;99.90;;;;;;4957182;28;20395;-73
2023/05/31 09:08:06;;;;;;;16.67;7.47;;;20.50;99.90;;;;;;4946212;28;20045;-73
2023/05/31 09:10:31;;;;;;;13.52;6.82;;;20.70;99.90;;;;;;4955494;29;20153;-72
2023/05/31 09:12:57;;;;;;;15.27;7.07;;;20.90;99.90;;;;;;4947242;28;20059;-72
2023/05/31 09:15:24;;;;;;;15.05;7.07;;;21.00;99.90;;;;;;4955266;29;20033;-72
2023/05/31 09:17:51;;;;;;;16.17;7.63;;;21.00;99.90;;;;;;4952911;28;20024;-72
2023/05/31 09:20:18;;;;;;;16.90;6.80;;;21.10;99.90;;;;;;4954694;28;20027;-72
2023/05/31 09:22:48;;;;;;;14.10;6.80;;;21.10;99.90;;;;;;4957300;28;20584;-72
2023/05/31 09:25:14;;;;;;;15.77;8.05;;;21.10;99.90;;;;;;4957192;28;20035;-72
2023/05/31 09:27:40;;;;;;;15.82;6.82;;;21.20;99.90;;;;;;4957213;29;20032;-73
2023/05/31 09:30:10;;;;;;;13.70;6.25;;;21.20;99.90;;;;;;4956260;29;20035;-73
2023/05/31 09:32:36;;;;;;;14.25;6.63;;;21.20;99.90;;;;;;4954117;28;20034;-72
2023/05/31 09:35:11;;;;;;;13.60;6.30;;;21.30;99.90;;;;;;4952346;28;20160;-73
2023/05/31 09:37:51;;;;;;;15.45;6.18;;;21.30;99.90;;;;;;4954338;28;20038;-73
2023/05/31 09:40:24;;;;;;;13.25;6.18;;;21.40;99.90;;;;;;4949531;28;20079;-75
2023/05/31 09:42:51;;;;;;;16.02;6.25;;;21.50;99.90;;;;;;4951248;29;20015;-74
2023/05/31 09:45:18;;;;;;;13.32;6.65;;;21.70;99.90;;;;;;4954827;28;20615;-74
2023/05/31 09:47:44;;;;;;;11.90;5.88;;;21.80;99.90;;;;;;4956973;28;20059;-74
2023/05/31 09:50:17;;;;;;;11.85;6.30;;;21.90;99.90;;;;;;4956258;28;20028;-74
2023/05/31 09:52:48;;;;;;;13.98;5.55;;;22.10;99.90;;;;;;4946591;29;20031;-74
2023/05/31 09:55:16;;;;;;;11.70;5.70;;;22.20;99.90;;;;;;4948038;29;20035;-74
2023/05/31 09:57:43;;;;;;;15.15;6.70;;;22.40;99.90;;;;;;4951963;29;20043;-74
2023/05/31 10:00:14;;;;;;;12.48;6.10;;;22.40;99.90;;;;;;4950064;28;20487;-75
2023/05/31 10:03:01;;;;;;;12.23;5.85;;;22.30;99.90;;;;;;4956170;28;20533;-75
2023/05/31 10:05:27;;;;;;;13.10;6.20;;;22.30;99.90;;;;;;4947525;29;20039;-74
2023/05/31 10:07:53;;;;;;;12.73;5.90;;;22.40;99.90;;;;;;4946542;29;20031;-74
2023/05/31 10:10:21;;;;;;;11.98;6.03;;;22.50;99.90;;;;;;4955758;28;20027;-74
2023/05/31 10:12:50;;;;;;;14.07;6.07;;;22.50;99.90;;;;;;4957037;28;20073;-74
2023/05/31 10:15:26;;;;;;;10.80;6.05;;;22.50;99.90;;;;;;4954805;28;20027;-75
2023/05/31 10:18:02;;;;;;;13.68;6.32;;;22.50;99.90;;;;;;4941397;28;20042;-74
2023/05/31 10:20:39;;;;;;;14.88;6.38;;;22.50;99.80;;;;;;4960247;28;20026;-74
2023/05/31 10:23:25;;;;;;;11.73;6.03;;;22.50;99.60;;;;;;4945717;29;20028;-74
2023/05/31 10:26:13;;;;;;;12.40;6.10;;;22.30;99.90;;;;;;4953010;29;20042;-75
2023/05/31 10:29:04;;;;;;;13.98;6.90;;;22.40;99.90;;;;;;4954986;28;20024;-74
2023/05/31 10:31:35;;;;;;;11.40;5.25;;;22.50;99.90;;;;;;4947122;29;20031;-74
2023/05/31 10:34:24;;;;;;;13.27;5.70;;;22.60;99.60;;;;;;4955225;28;20069;-74
2023/05/31 10:36:54;;;;;;;13.57;6.00;;;22.70;99.40;;;;;;4949487;28;20031;-74
2023/05/31 10:39:32;;;;;;;18.42;5.75;;;22.70;98.80;;;;;;4953102;29;20047;-75
2023/05/31 10:42:08;;;;;;;11.93;5.70;;;22.80;98.70;;;;;;4955287;29;20055;-73
2023/05/31 10:44:45;;;;;;;9.05;4.82;;;22.80;98.20;;;;;;4951685;28;20055;-73
2023/05/31 10:47:13;;;;;;;11.32;5.75;;;22.80;98.40;;;;;;4952569;28;20050;-74
2023/05/31 10:49:41;;;;;;;11.10;5.78;;;23.00;98.20;;;;;;4947662;28;20352;-72
2023/05/31 10:52:09;;;;;;;14.23;5.50;;;23.10;97.70;;;;;;4940718;29;20371;-75
2023/05/31 10:54:34;;;;;;;10.98;5.85;;;23.20;97.60;;;;;;4949870;29;20643;-74
2023/05/31 10:57:03;;;;;;;14.27;6.78;;;23.30;97.30;;;;;;4948884;28;20139;-75
2023/05/31 10:59:40;;;;;;;13.77;6.00;;;23.40;96.60;;;;;;4955757;29;20011;-73
2023/05/31 11:02:06;;;;;;;15.27;5.97;;;23.40;95.60;;;;;;4946833;28;20032;-74
2023/05/31 11:04:32;;;;;;;13.35;6.43;;;23.30;96.20;;;;;;4956493;28;20545;-74
2023/05/31 11:07:21;;;;;;;11.40;5.53;;;23.30;96.50;;;;;;4956044;28;20060;-74
2023/05/31 11:10:10;;;;;;;11.38;5.45;;;23.40;96.30;;;;;;4949355;28;20067;-74
2023/05/31 11:12:37;;;;;;;11.55;5.85;;;23.60;96.20;;;;;;4954168;28;20026;-75
2023/05/31 11:15:05;;;;;;;17.48;7.05;;;23.80;95.90;;;;;;4949869;29;20020;-74
2023/05/31 11:17:51;;;;;;;14.77;5.93;;;23.90;94.50;;;;;;4953345;28;20032;-74
2023/05/31 11:20:17;;;;;;;13.05;5.38;;;23.70;94.40;;;;;;4951936;29;20403;-74
2023/05/31 11:22:43;;;;;;;11.35;4.93;;;23.60;94.80;;;;;;4956347;28;20363;-73
2023/05/31 11:25:20;;;;;;;10.27;4.78;;;23.70;94.60;;;;;;4954546;28;20031;-71
2023/05/31 11:27:48;;;;;;;12.48;5.00;;;24.00;94.40;;;;;;4935745;29;20032;-71
2023/05/31 11:30:17;;;;;;;15.45;5.50;;;24.10;93.60;;;;;;4949531;29;20085;-71
2023/05/31 11:32:43;;;;;;;14.98;5.95;;;24.30;92.80;;;;;;4954670;29;20062;-71
2023/05/31 11:35:16;;;;;;;14.82;5.25;;;24.40;92.40;;;;;;4952749;28;20027;-70
2023/05/31 11:37:43;;;;;;;14.77;4.65;;;24.40;91.90;;;;;;4948691;29;20055;-71
2023/05/31 11:40:14;;;;;;;12.57;5.20;;;24.60;91.50;;;;;;4944856;29;20042;-70
2023/05/31 11:42:44;;;;;;;12.38;5.25;;;24.70;90.80;;;;;;4948991;29;20089;-71
2023/05/31 11:45:14;;;;;;;13.07;4.93;;;24.70;90.70;;;;;;4941707;29;20038;-71
2023/05/31 11:48:03;;;;;;;17.25;5.70;;;24.90;90.00;;;;;;4953821;28;20102;-71
2023/05/31 11:50:29;;;;;;;15.68;5.43;;;24.70;86.40;;;;;;4942237;29;20042;-71
2023/05/31 11:52:55;;;;;;;12.27;5.63;;;24.50;86.30;;;;;;4949287;29;20115;-71
2023/05/31 11:55:21;;;;;;;11.52;5.05;;;24.40;87.20;;;;;;4952989;28;20055;-70
2023/05/31 11:57:51;;;;;;;10.68;4.82;;;24.30;88.10;;;;;;4949212;29;20028;-72
2023/05/31 12:00:21;;;;;;;13.32;4.53;;;24.40;88.00;;;;;;4957730;28;20025;-71
2023/05/31 12:02:56;;;;;;;15.18;4.43;;;24.40;87.50;;;;;;4946001;29;20027;-71
2023/05/31 12:05:22;;;;;;;11.10;4.85;;;24.50;87.10;;;;;;4946056;29;20137;-71
2023/05/31 12:07:52;;;;;;;12.43;4.85;;;24.60;87.10;;;;;;4958766;28;20554;-76
2023/05/31 12:10:17;;;;;;;15.65;4.25;;;24.70;85.80;;;;;;4955414;28;20028;-77
2023/05/31 12:12:46;;;;;;;11.02;4.07;;;24.70;85.70;;;;;;4959300;28;20493;-74
2023/05/31 12:15:14;;;;;;;8.95;4.00;;;24.80;83.80;;;;;;4958648;28;20118;-77
2023/05/31 12:17:40;;;;;;;10.50;4.25;;;24.90;82.80;;;;;;4958562;28;20043;-76
2023/05/31 12:20:07;;;;;;;9.90;4.10;;;25.10;83.50;;;;;;4958733;29;20027;-77
2023/05/31 12:22:33;;;;;;;9.63;4.15;;;25.20;81.80;;;;;;4950195;28;20466;-76
2023/05/31 12:25:00;;;;;;;15.10;4.80;;;25.30;81.50;;;;;;4958807;28;20042;-77
2023/05/31 12:27:28;;;;;;;10.93;4.30;;;25.40;80.80;;;;;;4958089;28;20027;-77
2023/05/31 12:30:00;;;;;;;9.40;3.78;;;25.50;79.80;;;;;;4956637;29;20015;-77
2023/05/31 12:32:29;;;;;;;13.63;4.50;;;25.60;79.70;;;;;;4956820;28;20526;-76
2023/05/31 12:35:08;;;;;;;11.57;4.90;;;25.70;78.60;;;;;;4958651;29;20591;-76
2023/05/31 12:37:38;;;;;;;10.82;4.00;;;25.60;77.00;;;;;;4949870;29;20039;-76
2023/05/31 12:40:15;;;;;;;11.38;4.20;;;25.60;76.20;;;;;;4953009;28;20055;-76